createdAt,value
2022-12-03T00:01:22.211Z,78.44
2022-12-03T00:04:25.028Z,78.54
2022-12-03T00:07:27.338Z,78.45
2022-12-03T00:10:30.182Z,78.88
2022-12-03T00:13:32.434Z,78.73
2022-12-03T00:16:35.026Z,79.16
2022-12-03T00:19:37.237Z,79.14
2022-12-03T00:22:39.713Z,79.34
2022-12-03T00:25:41.918Z,79.36
2022-12-03T00:28:45.671Z,79.16
2022-12-03T00:31:48.829Z,79.18
2022-12-03T00:34:51.696Z,79.31
2022-12-03T00:37:54.898Z,79.67
2022-12-03T00:40:57.384Z,79.60
2022-12-03T00:43:59.676Z,79.61
2022-12-03T00:47:02.323Z,79.71
2022-12-03T00:50:05.614Z,79.84
2022-12-03T00:53:08.146Z,80.12
2022-12-03T00:56:10.361Z,80.01
2022-12-03T00:59:12.973Z,80.07
2022-12-03T01:02:16.039Z,80.06
2022-12-03T01:05:19.850Z,80.28
2022-12-03T01:08:22.190Z,80.20
2022-12-03T01:11:41.245Z,80.30
2022-12-03T01:14:44.112Z,80.23
2022-12-03T01:17:46.900Z,80.22
2022-12-03T01:20:49.218Z,80.31
2022-12-03T01:23:51.858Z,80.40
2022-12-03T01:26:55.873Z,80.55
2022-12-03T01:29:58.354Z,80.62
2022-12-03T01:33:00.537Z,80.73
2022-12-03T01:36:03.184Z,80.56
2022-12-03T01:39:05.473Z,80.59
2022-12-03T01:42:11.951Z,80.44
2022-12-03T01:45:22.963Z,80.32
2022-12-03T01:48:25.457Z,80.42
2022-12-03T01:51:27.697Z,80.51
2022-12-03T01:54:38.854Z,80.38
2022-12-03T01:57:45.416Z,80.42
2022-12-03T02:00:48.220Z,80.42
2022-12-03T02:03:50.944Z,80.46
2022-12-03T02:06:53.574Z,80.40
2022-12-03T02:09:58.137Z,80.46
2022-12-03T02:13:07.563Z,80.59
2022-12-03T02:16:10.139Z,80.48
2022-12-03T02:19:26.791Z,80.21
2022-12-03T02:22:40.651Z,80.19
2022-12-03T02:25:43.138Z,80.13
2022-12-03T02:28:45.365Z,80.31
2022-12-03T02:31:47.942Z,80.13
2022-12-03T02:34:52.240Z,80.06
2022-12-03T02:38:00.213Z,80.01
2022-12-03T02:41:07.293Z,80.02
2022-12-03T02:44:10.047Z,80.03
2022-12-03T02:47:12.999Z,79.94
2022-12-03T02:50:20.020Z,79.96
2022-12-03T02:53:32.491Z,79.93
2022-12-03T02:56:35.181Z,79.91
2022-12-03T02:59:37.466Z,79.99
2022-12-03T03:02:41.374Z,80.00
2022-12-03T03:05:45.151Z,80.07
2022-12-03T03:08:48.135Z,80.06
2022-12-03T03:11:50.281Z,80.15
2022-12-03T03:14:53.003Z,80.05
2022-12-03T03:17:55.860Z,80.13
2022-12-03T03:20:59.136Z,80.01
2022-12-03T03:24:01.425Z,80.10
2022-12-03T03:27:05.115Z,80.10
2022-12-03T03:30:09.646Z,80.27
2022-12-03T03:33:14.418Z,80.23
2022-12-03T03:36:17.233Z,80.25
2022-12-03T03:39:19.874Z,80.09
2022-12-03T03:42:22.794Z,80.08
2022-12-03T03:45:29.080Z,79.98
2022-12-03T03:48:34.516Z,80.04
2022-12-03T03:51:38.681Z,79.89
2022-12-03T03:54:41.017Z,79.89
2022-12-03T03:57:43.595Z,79.85
2022-12-03T04:00:46.574Z,79.78
2022-12-03T04:03:49.209Z,79.55
2022-12-03T04:06:51.453Z,79.78
2022-12-03T04:09:53.974Z,79.89
2022-12-03T04:12:56.434Z,79.83
2022-12-03T04:15:59.095Z,79.88
2022-12-03T04:19:01.317Z,79.98
2022-12-03T04:22:22.110Z,79.74
2022-12-03T04:25:43.042Z,79.70
2022-12-03T04:28:51.128Z,79.53
2022-12-03T04:32:11.686Z,79.54
2022-12-03T04:35:33.281Z,79.51
2022-12-03T04:38:35.673Z,79.51
2022-12-03T04:41:38.154Z,79.39
2022-12-03T04:44:40.745Z,79.10
2022-12-03T04:47:44.706Z,79.18
2022-12-03T04:50:47.012Z,79.16
2022-12-03T04:53:49.522Z,79.30
2022-12-03T04:56:51.820Z,79.19
2022-12-03T04:59:54.289Z,79.03
2022-12-03T05:02:56.560Z,79.22
2022-12-03T05:05:59.478Z,79.31
2022-12-03T05:09:01.775Z,79.49
2022-12-03T05:12:04.582Z,79.70
2022-12-03T05:15:07.328Z,79.91
2022-12-03T05:18:09.843Z,80.24
2022-12-03T05:21:12.273Z,80.39
2022-12-03T05:24:14.810Z,80.40
2022-12-03T05:27:23.140Z,80.36
2022-12-03T05:30:26.458Z,80.45
2022-12-03T05:33:28.766Z,80.51
2022-12-03T05:36:34.310Z,80.42
2022-12-03T05:39:36.937Z,80.39
2022-12-03T05:42:55.204Z,80.37
2022-12-03T05:45:57.477Z,80.55
2022-12-03T05:49:00.054Z,80.61
2022-12-03T05:52:02.618Z,80.53
2022-12-03T05:55:05.664Z,80.46
2022-12-03T05:58:08.262Z,80.44
2022-12-03T06:01:10.872Z,80.47
2022-12-03T06:04:13.428Z,80.77
2022-12-03T06:07:15.763Z,80.60
2022-12-03T06:10:28.331Z,80.55
2022-12-03T06:13:30.559Z,80.61
2022-12-03T06:16:33.160Z,80.49
2022-12-03T06:19:35.944Z,80.66
2022-12-03T06:22:38.446Z,80.57
2022-12-03T06:25:40.802Z,80.38
2022-12-03T06:28:47.708Z,80.34
2022-12-03T06:31:50.048Z,80.33
2022-12-03T06:34:52.915Z,80.11
2022-12-03T06:37:55.541Z,79.98
2022-12-03T06:40:58.182Z,79.95
2022-12-03T06:44:03.598Z,79.82
2022-12-03T06:47:06.330Z,79.90
2022-12-03T06:50:10.554Z,80.11
2022-12-03T06:53:13.081Z,80.15
2022-12-03T06:56:18.844Z,79.86
2022-12-03T06:59:24.025Z,79.75
2022-12-03T07:02:26.365Z,79.72
2022-12-03T07:05:28.959Z,79.64
2022-12-03T07:08:31.177Z,79.67
2022-12-03T07:11:39.889Z,79.64
2022-12-03T07:14:42.168Z,79.71
2022-12-03T07:17:44.737Z,79.59
2022-12-03T07:20:47.071Z,79.50
2022-12-03T07:23:49.605Z,79.99
2022-12-03T07:26:51.987Z,80.28
2022-12-03T07:29:54.574Z,79.76
2022-12-03T07:32:57.068Z,79.37
2022-12-03T07:35:59.613Z,79.42
2022-12-03T07:39:01.856Z,79.25
2022-12-03T07:42:04.496Z,79.11
2022-12-03T07:45:07.427Z,79.08
2022-12-03T07:48:10.395Z,79.06
2022-12-03T07:51:15.270Z,79.06
2022-12-03T07:54:18.190Z,78.92
2022-12-03T07:57:20.880Z,78.89
2022-12-03T08:00:23.566Z,78.86
2022-12-03T08:03:26.132Z,78.71
2022-12-03T08:06:28.422Z,78.56
2022-12-03T08:09:31.511Z,78.42
2022-12-03T08:12:40.877Z,78.30
2022-12-03T08:15:44.054Z,78.33
2022-12-03T08:18:48.378Z,78.08
2022-12-03T08:21:52.320Z,77.65
2022-12-03T08:24:58.717Z,77.30
2022-12-03T08:28:28.255Z,76.89
2022-12-03T08:31:33.653Z,76.57
2022-12-03T08:34:42.524Z,76.09
2022-12-03T08:37:44.881Z,75.10
2022-12-03T08:40:51.018Z,74.51
2022-12-03T08:43:53.238Z,73.70
2022-12-03T08:47:21.747Z,72.98
2022-12-03T08:50:30.151Z,72.77
2022-12-03T08:53:47.669Z,72.35
2022-12-03T08:56:50.036Z,71.99
2022-12-03T09:00:10.050Z,71.88
2022-12-03T09:03:19.349Z,72.03
2022-12-03T09:06:22.902Z,72.00
2022-12-03T09:09:25.583Z,72.16
2022-12-03T09:12:28.070Z,71.83
2022-12-03T09:15:30.307Z,70.75
2022-12-03T09:18:33.688Z,69.79
2022-12-03T09:21:36.129Z,69.20
2022-12-03T09:24:38.651Z,68.77
2022-12-03T09:27:40.915Z,67.98
2022-12-03T09:30:46.383Z,66.75
2022-12-03T09:33:48.860Z,66.12
2022-12-03T09:36:51.443Z,65.53
2022-12-03T09:39:53.691Z,64.86
2022-12-03T09:42:58.643Z,64.83
2022-12-03T09:46:01.448Z,64.66
2022-12-03T09:49:12.320Z,65.10
2022-12-03T09:52:27.563Z,65.49
2022-12-03T09:55:31.166Z,65.82
2022-12-03T09:58:35.030Z,66.45
2022-12-03T10:01:38.416Z,65.98
2022-12-03T10:04:44.247Z,65.63
2022-12-03T10:07:48.344Z,64.44
2022-12-03T10:10:57.100Z,63.74
2022-12-03T10:13:59.496Z,63.48
2022-12-03T10:17:02.264Z,61.68
2022-12-03T10:20:05.147Z,59.86
2022-12-03T10:23:07.683Z,57.46
2022-12-03T10:26:10.122Z,55.60
2022-12-03T10:29:29.630Z,54.51
2022-12-03T10:32:47.512Z,53.86
2022-12-03T10:35:50.034Z,52.81
2022-12-03T10:39:12.530Z,52.14
2022-12-03T10:42:16.335Z,51.95
2022-12-03T10:45:22.691Z,47.16
2022-12-03T10:48:27.385Z,46.58
2022-12-03T10:51:30.924Z,45.34
2022-12-03T10:54:35.519Z,43.98
2022-12-03T10:57:42.380Z,42.17
2022-12-03T11:00:48.479Z,43.64
2022-12-03T11:03:51.846Z,45.05
2022-12-03T11:06:55.346Z,45.09
2022-12-03T11:09:58.897Z,47.50
2022-12-03T11:13:20.169Z,48.91
2022-12-03T11:16:45.446Z,49.94
2022-12-03T11:19:48.849Z,50.17
2022-12-03T11:22:55.618Z,48.07
2022-12-03T11:25:58.318Z,45.80
2022-12-03T11:29:00.643Z,43.75
2022-12-03T11:32:03.283Z,43.53
2022-12-03T11:35:13.034Z,43.60
2022-12-03T11:38:37.547Z,44.30
2022-12-03T11:42:29.002Z,45.31
2022-12-03T11:45:36.645Z,46.03
2022-12-03T11:48:45.296Z,44.87
2022-12-03T11:51:48.340Z,43.72
2022-12-03T11:54:56.273Z,43.24
2022-12-03T11:58:04.368Z,43.13
2022-12-03T12:01:08.290Z,43.76
2022-12-03T12:04:43.064Z,44.89
2022-12-03T12:07:47.934Z,45.61
2022-12-03T12:10:50.555Z,46.14
2022-12-03T12:13:55.621Z,47.13
2022-12-03T12:17:03.203Z,47.41
2022-12-03T12:20:27.107Z,47.21
2022-12-03T12:23:29.694Z,46.85
2022-12-03T12:26:31.944Z,46.95
2022-12-03T12:29:35.859Z,46.75
2022-12-03T12:33:07.072Z,47.16
2022-12-03T12:36:10.106Z,47.96
2022-12-03T12:39:14.733Z,48.77
2022-12-03T12:42:52.336Z,49.68
2022-12-03T12:45:56.697Z,50.55
2022-12-03T12:48:59.993Z,51.61
2022-12-03T12:52:02.492Z,52.40
2022-12-03T12:55:10.441Z,53.16
2022-12-03T12:58:19.490Z,53.73
2022-12-03T13:01:32.403Z,54.75
2022-12-03T13:04:39.955Z,55.71
2022-12-03T13:07:43.932Z,56.61
2022-12-03T13:10:47.583Z,57.46
2022-12-03T13:13:50.739Z,58.08
2022-12-03T13:16:56.049Z,58.76
2022-12-03T13:20:07.230Z,59.26
2022-12-03T13:23:29.854Z,59.46
2022-12-03T13:26:39.450Z,59.95
2022-12-03T13:29:42.195Z,60.61
2022-12-03T13:32:44.732Z,60.85
2022-12-03T13:35:47.098Z,61.27
2022-12-03T13:38:49.810Z,61.58
2022-12-03T13:42:11.117Z,61.92
2022-12-03T13:45:13.595Z,62.16
2022-12-03T13:48:27.518Z,62.47
2022-12-03T13:51:32.499Z,62.59
2022-12-03T13:54:38.986Z,62.90
2022-12-03T13:57:41.545Z,63.11
2022-12-03T14:00:43.984Z,63.18
2022-12-03T14:03:46.571Z,63.58
2022-12-03T14:06:48.847Z,63.46
2022-12-03T14:09:51.854Z,63.66
2022-12-03T14:12:54.985Z,63.60
2022-12-03T14:15:57.632Z,63.92
2022-12-03T14:19:00.145Z,64.40
2022-12-03T14:22:02.788Z,64.53
2022-12-03T14:25:06.888Z,65.01
2022-12-03T14:28:09.953Z,64.93
2022-12-03T14:31:12.228Z,65.10
2022-12-03T14:34:14.793Z,65.55
2022-12-03T14:37:17.472Z,65.71
2022-12-03T14:40:21.991Z,66.01
2022-12-03T14:43:24.509Z,66.10
2022-12-03T14:46:27.126Z,66.43
2022-12-03T14:49:29.699Z,66.71
2022-12-03T14:52:32.438Z,66.61
2022-12-03T14:55:34.886Z,66.82
2022-12-03T14:58:37.439Z,67.28
2022-12-03T15:01:39.770Z,67.39
2022-12-03T15:04:42.439Z,67.82
2022-12-03T15:07:45.010Z,67.49
2022-12-03T15:10:47.547Z,67.95
2022-12-03T15:13:49.859Z,68.15
2022-12-03T15:16:52.462Z,68.26
2022-12-03T15:19:55.073Z,68.53
2022-12-03T15:22:58.151Z,68.57
2022-12-03T15:26:00.494Z,68.60
2022-12-03T15:29:03.154Z,68.77
2022-12-03T15:32:05.764Z,68.86
2022-12-03T15:35:08.715Z,69.20
2022-12-03T15:38:11.955Z,69.32
2022-12-03T15:41:29.820Z,69.59
2022-12-03T15:44:32.069Z,69.70
2022-12-03T15:47:34.630Z,70.00
2022-12-03T15:50:40.265Z,70.00
2022-12-03T15:53:43.135Z,69.99
2022-12-03T15:56:45.418Z,70.20
2022-12-03T15:59:48.055Z,70.45
2022-12-03T16:02:53.089Z,70.77
2022-12-03T16:05:55.993Z,70.98
2022-12-03T16:08:58.251Z,71.11
2022-12-03T16:12:00.787Z,71.52
2022-12-03T16:15:03.248Z,71.35
2022-12-03T16:18:05.882Z,71.54
2022-12-03T16:21:08.143Z,71.54
2022-12-03T16:24:10.704Z,71.77
2022-12-03T16:27:12.993Z,71.79
2022-12-03T16:30:15.763Z,71.83
2022-12-03T16:33:21.255Z,72.07
2022-12-03T16:36:28.258Z,72.26
2022-12-03T16:39:30.690Z,72.11
2022-12-03T16:42:33.262Z,72.18
2022-12-03T16:45:54.249Z,72.32
2022-12-03T16:48:58.228Z,72.60
2022-12-03T16:52:00.487Z,72.47
2022-12-03T16:55:03.298Z,72.52
2022-12-03T16:58:05.896Z,72.50
2022-12-03T17:01:08.519Z,72.64
2022-12-03T17:04:10.885Z,72.78
2022-12-03T17:07:13.469Z,72.88
2022-12-03T17:10:15.761Z,72.97
2022-12-03T17:13:18.982Z,72.98
2022-12-03T17:16:23.857Z,73.07
2022-12-03T17:19:26.583Z,73.23
2022-12-03T17:22:28.788Z,73.29
2022-12-03T17:25:31.337Z,73.25
2022-12-03T17:28:33.626Z,73.48
2022-12-03T17:31:41.699Z,73.44
2022-12-03T17:34:44.657Z,73.49
2022-12-03T17:37:47.155Z,73.61
2022-12-03T17:40:49.435Z,73.63
2022-12-03T17:43:53.866Z,73.69
2022-12-03T17:46:56.208Z,74.22
2022-12-03T17:49:58.878Z,74.08
2022-12-03T17:53:01.392Z,73.84
2022-12-03T17:56:04.131Z,73.58
2022-12-03T17:59:06.421Z,73.47
2022-12-03T18:02:09.035Z,73.76
2022-12-03T18:05:11.727Z,74.10
2022-12-03T18:08:13.963Z,73.94
2022-12-03T18:11:16.553Z,73.76
2022-12-03T18:14:18.795Z,73.63
2022-12-03T18:17:21.322Z,73.67
2022-12-03T18:20:23.671Z,73.93
2022-12-03T18:23:26.783Z,74.09
2022-12-03T18:26:29.259Z,74.22
2022-12-03T18:29:32.010Z,74.35
2022-12-03T18:32:34.285Z,74.53
2022-12-03T18:35:37.022Z,74.62
2022-12-03T18:38:39.328Z,74.76
2022-12-03T18:41:41.882Z,74.85
2022-12-03T18:44:49.483Z,74.94
2022-12-03T18:47:52.472Z,75.25
2022-12-03T18:50:56.492Z,75.22
2022-12-03T18:53:59.112Z,75.18
2022-12-03T18:57:01.483Z,75.37
2022-12-03T19:00:13.044Z,75.41
2022-12-03T19:03:15.954Z,75.53
2022-12-03T19:06:21.450Z,75.62
2022-12-03T19:09:23.895Z,75.64
2022-12-03T19:12:26.415Z,75.76
2022-12-03T19:15:28.714Z,75.71
2022-12-03T19:18:31.333Z,75.74
2022-12-03T19:21:34.119Z,75.68
2022-12-03T19:24:36.713Z,75.67
2022-12-03T19:27:39.004Z,75.91
2022-12-03T19:30:41.565Z,75.76
2022-12-03T19:33:44.289Z,75.81
2022-12-03T19:36:47.594Z,75.91
2022-12-03T19:39:53.515Z,76.10
2022-12-03T19:42:56.285Z,76.00
2022-12-03T19:46:06.396Z,75.95
2022-12-03T19:49:09.969Z,75.91
2022-12-03T19:52:12.221Z,75.93
2022-12-03T19:55:19.454Z,75.84
2022-12-03T19:58:22.332Z,75.74
2022-12-03T20:01:27.347Z,75.86
2022-12-03T20:04:29.927Z,75.95
2022-12-03T20:07:32.265Z,75.97
2022-12-03T20:10:36.287Z,76.01
2022-12-03T20:13:38.995Z,76.02
2022-12-03T20:16:43.563Z,75.86
2022-12-03T20:19:45.967Z,75.87
2022-12-03T20:22:48.867Z,75.74
2022-12-03T20:25:51.131Z,75.77
2022-12-03T20:28:55.188Z,75.72
2022-12-03T20:31:57.693Z,75.65
2022-12-03T20:35:00.357Z,75.76
2022-12-03T20:38:02.629Z,75.69
2022-12-03T20:41:07.851Z,75.59
2022-12-03T20:44:10.172Z,75.69
2022-12-03T20:47:12.779Z,75.71
2022-12-03T20:50:15.147Z,75.75
2022-12-03T20:53:24.788Z,75.71
2022-12-03T20:56:33.296Z,75.81
2022-12-03T20:59:35.871Z,75.96
2022-12-03T21:02:38.407Z,75.84
2022-12-03T21:05:42.619Z,75.86
2022-12-03T21:08:45.804Z,75.81
2022-12-03T21:11:48.402Z,75.84
2022-12-03T21:14:50.925Z,75.79
2022-12-03T21:17:53.742Z,75.83
2022-12-03T21:20:56.259Z,75.94
2022-12-03T21:23:58.778Z,76.15
2022-12-03T21:27:01.096Z,76.28
2022-12-03T21:30:04.264Z,76.47
2022-12-03T21:33:06.924Z,76.51
2022-12-03T21:36:10.530Z,76.47
2022-12-03T21:39:13.113Z,76.46
2022-12-03T21:42:34.007Z,76.81
2022-12-03T21:45:40.602Z,76.53
2022-12-03T21:48:44.616Z,76.61
2022-12-03T21:51:47.050Z,76.53
2022-12-03T21:54:52.463Z,76.50
2022-12-03T21:57:54.684Z,76.43
2022-12-03T22:01:25.599Z,76.48
2022-12-03T22:04:30.519Z,76.47
2022-12-03T22:07:34.435Z,76.43
2022-12-03T22:10:37.030Z,76.39
2022-12-03T22:13:40.377Z,76.47
2022-12-03T22:16:42.868Z,76.39
2022-12-03T22:19:45.160Z,76.36
2022-12-03T22:22:47.651Z,76.29
2022-12-03T22:25:58.760Z,76.38
2022-12-03T22:29:01.307Z,76.44
2022-12-03T22:32:04.089Z,76.52
2022-12-03T22:35:06.949Z,76.56
2022-12-03T22:38:09.182Z,76.53
2022-12-03T22:41:13.294Z,76.55
2022-12-03T22:44:16.414Z,76.55
2022-12-03T22:47:19.025Z,76.73
2022-12-03T22:50:21.345Z,76.77
2022-12-03T22:53:23.942Z,76.69
2022-12-03T22:56:27.721Z,76.69
2022-12-03T22:59:30.146Z,76.65
2022-12-03T23:02:33.337Z,76.62
2022-12-03T23:05:38.723Z,76.53
2022-12-03T23:08:41.000Z,76.47
2022-12-03T23:11:45.421Z,76.47
2022-12-03T23:14:47.660Z,76.44
2022-12-03T23:17:50.246Z,76.29
2022-12-03T23:20:54.522Z,76.32
2022-12-03T23:23:58.710Z,76.25
2022-12-03T23:27:00.975Z,76.32
2022-12-03T23:30:04.558Z,76.27
2022-12-03T23:33:07.103Z,76.38
2022-12-03T23:36:10.493Z,76.39
2022-12-03T23:39:12.726Z,76.35
2022-12-03T23:42:15.470Z,76.43
2022-12-03T23:45:17.773Z,76.44
2022-12-03T23:48:20.280Z,76.42
2022-12-03T23:51:24.601Z,76.46
2022-12-03T23:54:27.253Z,76.56
2022-12-03T23:57:29.533Z,76.67
